sensor_id;sensor_type;location;lat;lon;timestamp;P1;durP1;ratioP1;P2;durP2;ratioP2
70026;SDS011;57506;50.092;15.804;2022-08-06T00:01:51;19.30;;;13.65;;
70026;SDS011;57506;50.092;15.804;2022-08-06T00:04:17;16.42;;;13.82;;
70026;SDS011;57506;50.092;15.804;2022-08-06T00:06:43;19.57;;;15.07;;
70026;SDS011;57506;50.092;15.804;2022-08-06T00:09:08;20.52;;;16.25;;
70026;SDS011;57506;50.092;15.804;2022-08-06T00:11:36;23.55;;;16.95;;
70026;SDS011;57506;50.092;15.804;2022-08-06T00:14:01;20.33;;;14.70;;
70026;SDS011;57506;50.092;15.804;2022-08-06T00:16:27;21.73;;;14.73;;
70026;SDS011;57506;50.092;15.804;2022-08-06T00:18:52;16.47;;;12.73;;
70026;SDS011;57506;50.092;15.804;2022-08-06T00:21:18;16.02;;;13.65;;
70026;SDS011;57506;50.092;15.804;2022-08-06T00:23:43;19.07;;;13.87;;
70026;SDS011;57506;50.092;15.804;2022-08-06T00:26:09;18.43;;;14.47;;
70026;SDS011;57506;50.092;15.804;2022-08-06T00:28:34;17.47;;;13.57;;
70026;SDS011;57506;50.092;15.804;2022-08-06T00:31:00;14.68;;;12.93;;
70026;SDS011;57506;50.092;15.804;2022-08-06T00:33:28;20.55;;;13.73;;
70026;SDS011;57506;50.092;15.804;2022-08-06T00:35:53;20.80;;;16.10;;
70026;SDS011;57506;50.092;15.804;2022-08-06T00:38:19;19.05;;;16.05;;
70026;SDS011;57506;50.092;15.804;2022-08-06T00:40:45;19.90;;;16.13;;
70026;SDS011;57506;50.092;15.804;2022-08-06T00:43:12;18.25;;;14.93;;
70026;SDS011;57506;50.092;15.804;2022-08-06T00:45:37;21.57;;;16.03;;
70026;SDS011;57506;50.092;15.804;2022-08-06T00:48:03;21.60;;;16.63;;
70026;SDS011;57506;50.092;15.804;2022-08-06T00:50:32;20.27;;;16.75;;
70026;SDS011;57506;50.092;15.804;2022-08-06T00:52:59;20.88;;;15.82;;
70026;SDS011;57506;50.092;15.804;2022-08-06T00:55:25;19.83;;;17.37;;
70026;SDS011;57506;50.092;15.804;2022-08-06T00:57:51;22.05;;;17.90;;
70026;SDS011;57506;50.092;15.804;2022-08-06T01:00:17;22.45;;;17.70;;
70026;SDS011;57506;50.092;15.804;2022-08-06T01:02:43;20.97;;;17.60;;
70026;SDS011;57506;50.092;15.804;2022-08-06T01:05:08;21.83;;;17.58;;
70026;SDS011;57506;50.092;15.804;2022-08-06T01:07:34;21.27;;;17.03;;
70026;SDS011;57506;50.092;15.804;2022-08-06T01:09:59;20.40;;;15.97;;
70026;SDS011;57506;50.092;15.804;2022-08-06T01:12:28;18.35;;;15.35;;
70026;SDS011;57506;50.092;15.804;2022-08-06T01:14:54;21.38;;;16.02;;
70026;SDS011;57506;50.092;15.804;2022-08-06T01:17:34;19.37;;;16.67;;
70026;SDS011;57506;50.092;15.804;2022-08-06T01:23:21;23.73;;;17.50;;
70026;SDS011;57506;50.092;15.804;2022-08-06T01:26:28;20.57;;;18.23;;
70026;SDS011;57506;50.092;15.804;2022-08-06T01:31:34;25.20;;;19.27;;
70026;SDS011;57506;50.092;15.804;2022-08-06T01:34:10;22.60;;;18.85;;
70026;SDS011;57506;50.092;15.804;2022-08-06T01:36:45;27.55;;;19.52;;
70026;SDS011;57506;50.092;15.804;2022-08-06T01:39:17;25.17;;;19.00;;
70026;SDS011;57506;50.092;15.804;2022-08-06T01:41:46;24.52;;;19.02;;
70026;SDS011;57506;50.092;15.804;2022-08-06T01:44:15;24.80;;;17.92;;
70026;SDS011;57506;50.092;15.804;2022-08-06T01:46:44;23.98;;;15.45;;
70026;SDS011;57506;50.092;15.804;2022-08-06T01:49:12;18.33;;;12.77;;
70026;SDS011;57506;50.092;15.804;2022-08-06T01:51:44;19.50;;;12.60;;
70026;SDS011;57506;50.092;15.804;2022-08-06T01:54:11;15.68;;;11.48;;
70026;SDS011;57506;50.092;15.804;2022-08-06T01:56:39;14.98;;;11.23;;
70026;SDS011;57506;50.092;15.804;2022-08-06T01:59:06;14.77;;;10.82;;
70026;SDS011;57506;50.092;15.804;2022-08-06T02:01:35;13.95;;;10.00;;
70026;SDS011;57506;50.092;15.804;2022-08-06T02:04:03;11.80;;;8.90;;
70026;SDS011;57506;50.092;15.804;2022-08-06T02:06:34;12.93;;;8.30;;
70026;SDS011;57506;50.092;15.804;2022-08-06T02:09:05;10.88;;;6.85;;
70026;SDS011;57506;50.092;15.804;2022-08-06T02:11:36;11.30;;;6.05;;
70026;SDS011;57506;50.092;15.804;2022-08-06T02:14:04;7.32;;;4.78;;
70026;SDS011;57506;50.092;15.804;2022-08-06T02:16:35;7.67;;;4.23;;
70026;SDS011;57506;50.092;15.804;2022-08-06T02:19:03;5.95;;;3.33;;
70026;SDS011;57506;50.092;15.804;2022-08-06T02:21:31;5.32;;;2.67;;
70026;SDS011;57506;50.092;15.804;2022-08-06T02:24:03;7.03;;;2.58;;
70026;SDS011;57506;50.092;15.804;2022-08-06T02:26:32;9.68;;;2.40;;
70026;SDS011;57506;50.092;15.804;2022-08-06T02:29:02;4.93;;;1.60;;
70026;SDS011;57506;50.092;15.804;2022-08-06T02:31:30;5.35;;;1.70;;
70026;SDS011;57506;50.092;15.804;2022-08-06T02:33:57;3.85;;;1.30;;
70026;SDS011;57506;50.092;15.804;2022-08-06T02:36:23;4.25;;;1.67;;
70026;SDS011;57506;50.092;15.804;2022-08-06T02:41:56;4.47;;;2.03;;
70026;SDS011;57506;50.092;15.804;2022-08-06T02:47:14;6.65;;;1.67;;
70026;SDS011;57506;50.092;15.804;2022-08-06T02:49:46;4.68;;;1.83;;
70026;SDS011;57506;50.092;15.804;2022-08-06T02:52:16;5.93;;;1.73;;
70026;SDS011;57506;50.092;15.804;2022-08-06T02:54:49;4.57;;;1.60;;
70026;SDS011;57506;50.092;15.804;2022-08-06T02:57:22;6.32;;;1.75;;
70026;SDS011;57506;50.092;15.804;2022-08-06T02:59:50;6.28;;;2.30;;
70026;SDS011;57506;50.092;15.804;2022-08-06T03:02:20;6.80;;;2.50;;
70026;SDS011;57506;50.092;15.804;2022-08-06T03:04:48;13.90;;;2.80;;
70026;SDS011;57506;50.092;15.804;2022-08-06T03:07:16;8.52;;;3.45;;
70026;SDS011;57506;50.092;15.804;2022-08-06T03:09:45;11.30;;;3.58;;
70026;SDS011;57506;50.092;15.804;2022-08-06T03:12:13;10.18;;;3.47;;
70026;SDS011;57506;50.092;15.804;2022-08-06T03:14:41;11.07;;;4.75;;
70026;SDS011;57506;50.092;15.804;2022-08-06T03:17:10;11.87;;;4.83;;
70026;SDS011;57506;50.092;15.804;2022-08-06T03:19:37;14.98;;;5.07;;
70026;SDS011;57506;50.092;15.804;2022-08-06T03:22:06;7.35;;;3.38;;
70026;SDS011;57506;50.092;15.804;2022-08-06T03:24:34;10.18;;;3.00;;
70026;SDS011;57506;50.092;15.804;2022-08-06T03:27:02;10.90;;;3.40;;
70026;SDS011;57506;50.092;15.804;2022-08-06T03:29:29;10.07;;;3.50;;
70026;SDS011;57506;50.092;15.804;2022-08-06T03:31:57;9.20;;;2.45;;
70026;SDS011;57506;50.092;15.804;2022-08-06T03:34:25;7.53;;;1.80;;
70026;SDS011;57506;50.092;15.804;2022-08-06T03:36:53;6.53;;;1.52;;
70026;SDS011;57506;50.092;15.804;2022-08-06T03:39:21;8.77;;;1.50;;
70026;SDS011;57506;50.092;15.804;2022-08-06T03:41:48;5.77;;;2.60;;
70026;SDS011;57506;50.092;15.804;2022-08-06T03:44:15;8.25;;;2.88;;
70026;SDS011;57506;50.092;15.804;2022-08-06T03:46:46;10.05;;;4.30;;
70026;SDS011;57506;50.092;15.804;2022-08-06T03:49:21;8.68;;;4.32;;
70026;SDS011;57506;50.092;15.804;2022-08-06T03:51:51;9.17;;;5.30;;
70026;SDS011;57506;50.092;15.804;2022-08-06T03:54:22;8.57;;;5.35;;
70026;SDS011;57506;50.092;15.804;2022-08-06T03:56:51;9.93;;;5.63;;
70026;SDS011;57506;50.092;15.804;2022-08-06T03:59:19;12.00;;;6.57;;
70026;SDS011;57506;50.092;15.804;2022-08-06T04:01:46;9.82;;;6.72;;
70026;SDS011;57506;50.092;15.804;2022-08-06T04:04:14;12.03;;;6.67;;
70026;SDS011;57506;50.092;15.804;2022-08-06T04:06:41;9.77;;;6.45;;
70026;SDS011;57506;50.092;15.804;2022-08-06T04:09:09;12.52;;;6.95;;
70026;SDS011;57506;50.092;15.804;2022-08-06T04:11:35;14.57;;;7.18;;
70026;SDS011;57506;50.092;15.804;2022-08-06T04:14:02;10.60;;;7.13;;
70026;SDS011;57506;50.092;15.804;2022-08-06T04:16:30;12.30;;;7.43;;
70026;SDS011;57506;50.092;15.804;2022-08-06T04:18:56;10.38;;;6.97;;
70026;SDS011;57506;50.092;15.804;2022-08-06T04:21:23;9.90;;;6.43;;
70026;SDS011;57506;50.092;15.804;2022-08-06T04:23:50;8.75;;;6.28;;
70026;SDS011;57506;50.092;15.804;2022-08-06T04:26:17;8.23;;;5.90;;
70026;SDS011;57506;50.092;15.804;2022-08-06T04:28:48;9.73;;;6.20;;
70026;SDS011;57506;50.092;15.804;2022-08-06T04:31:16;12.50;;;7.05;;
70026;SDS011;57506;50.092;15.804;2022-08-06T04:33:44;10.57;;;7.00;;
70026;SDS011;57506;50.092;15.804;2022-08-06T04:36:11;10.15;;;6.95;;
70026;SDS011;57506;50.092;15.804;2022-08-06T04:38:37;11.63;;;6.90;;
70026;SDS011;57506;50.092;15.804;2022-08-06T04:41:04;11.65;;;7.10;;
70026;SDS011;57506;50.092;15.804;2022-08-06T04:43:31;12.32;;;7.60;;
70026;SDS011;57506;50.092;15.804;2022-08-06T04:45:57;14.52;;;7.07;;
70026;SDS011;57506;50.092;15.804;2022-08-06T04:48:23;12.50;;;7.73;;
70026;SDS011;57506;50.092;15.804;2022-08-06T04:50:49;12.43;;;7.93;;
70026;SDS011;57506;50.092;15.804;2022-08-06T04:53:16;16.00;;;9.02;;
70026;SDS011;57506;50.092;15.804;2022-08-06T04:55:43;13.85;;;8.35;;
70026;SDS011;57506;50.092;15.804;2022-08-06T04:58:11;13.13;;;7.78;;
70026;SDS011;57506;50.092;15.804;2022-08-06T05:00:39;12.57;;;8.00;;
70026;SDS011;57506;50.092;15.804;2022-08-06T05:03:07;13.73;;;8.45;;
70026;SDS011;57506;50.092;15.804;2022-08-06T05:05:35;14.73;;;8.65;;
70026;SDS011;57506;50.092;15.804;2022-08-06T05:08:04;12.63;;;8.00;;
70026;SDS011;57506;50.092;15.804;2022-08-06T05:11:35;13.43;;;8.13;;
70026;SDS011;57506;50.092;15.804;2022-08-06T05:13:35;13.05;;;7.95;;
70026;SDS011;57506;50.092;15.804;2022-08-06T05:16:04;12.10;;;7.90;;
70026;SDS011;57506;50.092;15.804;2022-08-06T05:18:36;11.80;;;7.85;;
70026;SDS011;57506;50.092;15.804;2022-08-06T05:21:12;12.10;;;6.90;;
70026;SDS011;57506;50.092;15.804;2022-08-06T05:23:43;15.80;;;7.32;;
70026;SDS011;57506;50.092;15.804;2022-08-06T05:26:12;11.65;;;7.32;;
70026;SDS011;57506;50.092;15.804;2022-08-06T05:28:39;13.07;;;6.93;;
70026;SDS011;57506;50.092;15.804;2022-08-06T05:31:05;13.90;;;7.22;;
70026;SDS011;57506;50.092;15.804;2022-08-06T05:33:32;14.30;;;7.90;;
70026;SDS011;57506;50.092;15.804;2022-08-06T05:36:03;12.25;;;7.55;;
70026;SDS011;57506;50.092;15.804;2022-08-06T05:38:31;13.40;;;7.85;;
70026;SDS011;57506;50.092;15.804;2022-08-06T05:40:58;12.98;;;7.90;;
70026;SDS011;57506;50.092;15.804;2022-08-06T05:43:24;12.50;;;7.97;;
70026;SDS011;57506;50.092;15.804;2022-08-06T05:45:51;12.70;;;7.03;;
70026;SDS011;57506;50.092;15.804;2022-08-06T05:48:20;11.65;;;7.78;;
70026;SDS011;57506;50.092;15.804;2022-08-06T05:50:49;12.40;;;7.68;;
70026;SDS011;57506;50.092;15.804;2022-08-06T05:53:21;13.18;;;7.75;;
70026;SDS011;57506;50.092;15.804;2022-08-06T05:56:03;14.53;;;7.77;;
70026;SDS011;57506;50.092;15.804;2022-08-06T05:58:38;14.80;;;8.40;;
70026;SDS011;57506;50.092;15.804;2022-08-06T06:01:07;15.48;;;9.02;;
70026;SDS011;57506;50.092;15.804;2022-08-06T06:03:34;13.05;;;9.00;;
70026;SDS011;57506;50.092;15.804;2022-08-06T06:06:02;15.15;;;9.20;;
70026;SDS011;57506;50.092;15.804;2022-08-06T06:08:30;16.30;;;9.67;;
70026;SDS011;57506;50.092;15.804;2022-08-06T06:10:55;16.15;;;9.80;;
70026;SDS011;57506;50.092;15.804;2022-08-06T06:13:22;17.00;;;9.40;;
70026;SDS011;57506;50.092;15.804;2022-08-06T06:21:51;16.75;;;10.43;;
70026;SDS011;57506;50.092;15.804;2022-08-06T06:26:57;18.33;;;11.70;;
70026;SDS011;57506;50.092;15.804;2022-08-06T06:37:49;17.42;;;11.65;;
70026;SDS011;57506;50.092;15.804;2022-08-06T06:40:29;16.05;;;11.38;;
70026;SDS011;57506;50.092;15.804;2022-08-06T06:43:16;15.43;;;10.90;;
70026;SDS011;57506;50.092;15.804;2022-08-06T06:45:54;16.77;;;10.90;;
70026;SDS011;57506;50.092;15.804;2022-08-06T06:48:31;14.70;;;10.85;;
70026;SDS011;57506;50.092;15.804;2022-08-06T06:51:02;14.63;;;10.57;;
70026;SDS011;57506;50.092;15.804;2022-08-06T06:53:32;14.10;;;10.40;;
70026;SDS011;57506;50.092;15.804;2022-08-06T06:56:02;13.23;;;8.77;;
70026;SDS011;57506;50.092;15.804;2022-08-06T06:58:34;12.05;;;7.85;;
70026;SDS011;57506;50.092;15.804;2022-08-06T07:01:03;10.30;;;7.38;;
70026;SDS011;57506;50.092;15.804;2022-08-06T07:03:31;11.25;;;7.63;;
70026;SDS011;57506;50.092;15.804;2022-08-06T07:05:59;10.65;;;7.65;;
70026;SDS011;57506;50.092;15.804;2022-08-06T07:08:28;13.73;;;8.47;;
70026;SDS011;57506;50.092;15.804;2022-08-06T07:10:54;13.40;;;9.38;;
70026;SDS011;57506;50.092;15.804;2022-08-06T07:13:21;13.63;;;7.72;;
70026;SDS011;57506;50.092;15.804;2022-08-06T07:15:50;10.93;;;7.90;;
70026;SDS011;57506;50.092;15.804;2022-08-06T07:18:17;13.65;;;8.60;;
70026;SDS011;57506;50.092;15.804;2022-08-06T07:20:44;15.40;;;9.80;;
70026;SDS011;57506;50.092;15.804;2022-08-06T07:23:10;13.02;;;8.98;;
70026;SDS011;57506;50.092;15.804;2022-08-06T07:25:41;12.65;;;9.10;;
70026;SDS011;57506;50.092;15.804;2022-08-06T07:28:10;17.48;;;9.45;;
70026;SDS011;57506;50.092;15.804;2022-08-06T07:30:38;15.98;;;10.60;;
70026;SDS011;57506;50.092;15.804;2022-08-06T07:33:06;16.20;;;9.80;;
70026;SDS011;57506;50.092;15.804;2022-08-06T07:35:33;14.60;;;9.27;;
70026;SDS011;57506;50.092;15.804;2022-08-06T07:38:00;15.40;;;10.43;;
70026;SDS011;57506;50.092;15.804;2022-08-06T07:43:17;14.80;;;9.95;;
70026;SDS011;57506;50.092;15.804;2022-08-06T07:46:07;14.13;;;9.93;;
70026;SDS011;57506;50.092;15.804;2022-08-06T07:48:37;13.90;;;9.43;;
70026;SDS011;57506;50.092;15.804;2022-08-06T07:51:06;19.35;;;11.18;;
70026;SDS011;57506;50.092;15.804;2022-08-06T07:53:32;15.43;;;10.77;;
70026;SDS011;57506;50.092;15.804;2022-08-06T07:56:01;16.42;;;10.82;;
70026;SDS011;57506;50.092;15.804;2022-08-06T07:58:31;16.15;;;9.82;;
70026;SDS011;57506;50.092;15.804;2022-08-06T08:00:59;15.63;;;9.55;;
70026;SDS011;57506;50.092;15.804;2022-08-06T08:03:25;14.18;;;10.00;;
70026;SDS011;57506;50.092;15.804;2022-08-06T08:06:10;14.23;;;9.20;;
70026;SDS011;57506;50.092;15.804;2022-08-06T08:08:50;12.80;;;9.20;;
70026;SDS011;57506;50.092;15.804;2022-08-06T08:11:26;11.02;;;7.90;;
70026;SDS011;57506;50.092;15.804;2022-08-06T08:13:53;9.73;;;7.28;;
70026;SDS011;57506;50.092;15.804;2022-08-06T08:16:20;15.18;;;7.72;;
70026;SDS011;57506;50.092;15.804;2022-08-06T08:18:46;12.90;;;6.63;;
70026;SDS011;57506;50.092;15.804;2022-08-06T08:21:13;11.85;;;7.70;;
70026;SDS011;57506;50.092;15.804;2022-08-06T08:23:39;12.15;;;8.05;;
70026;SDS011;57506;50.092;15.804;2022-08-06T08:26:06;13.10;;;8.57;;
70026;SDS011;57506;50.092;15.804;2022-08-06T08:28:32;13.60;;;8.03;;
70026;SDS011;57506;50.092;15.804;2022-08-06T08:30:57;12.10;;;8.27;;
70026;SDS011;57506;50.092;15.804;2022-08-06T08:33:26;10.38;;;7.60;;
70026;SDS011;57506;50.092;15.804;2022-08-06T08:35:53;11.02;;;8.10;;
70026;SDS011;57506;50.092;15.804;2022-08-06T08:38:19;11.70;;;7.50;;
70026;SDS011;57506;50.092;15.804;2022-08-06T08:40:45;10.85;;;7.28;;
70026;SDS011;57506;50.092;15.804;2022-08-06T08:43:13;14.27;;;8.30;;
70026;SDS011;57506;50.092;15.804;2022-08-06T08:45:45;11.87;;;7.30;;
70026;SDS011;57506;50.092;15.804;2022-08-06T08:48:14;11.73;;;7.60;;
70026;SDS011;57506;50.092;15.804;2022-08-06T08:50:41;11.52;;;7.60;;
70026;SDS011;57506;50.092;15.804;2022-08-06T08:53:13;9.55;;;7.05;;
70026;SDS011;57506;50.092;15.804;2022-08-06T08:55:40;13.35;;;7.78;;
70026;SDS011;57506;50.092;15.804;2022-08-06T08:58:06;9.93;;;7.37;;
70026;SDS011;57506;50.092;15.804;2022-08-06T09:00:33;12.82;;;8.57;;
70026;SDS011;57506;50.092;15.804;2022-08-06T09:02:59;11.73;;;6.35;;
70026;SDS011;57506;50.092;15.804;2022-08-06T09:05:27;9.15;;;6.25;;
70026;SDS011;57506;50.092;15.804;2022-08-06T09:07:54;11.90;;;6.55;;
70026;SDS011;57506;50.092;15.804;2022-08-06T09:10:21;11.17;;;7.73;;
70026;SDS011;57506;50.092;15.804;2022-08-06T09:12:49;9.27;;;6.47;;
70026;SDS011;57506;50.092;15.804;2022-08-06T09:15:16;9.40;;;5.32;;
70026;SDS011;57506;50.092;15.804;2022-08-06T09:17:44;9.25;;;5.75;;
70026;SDS011;57506;50.092;15.804;2022-08-06T09:20:10;10.95;;;5.40;;
70026;SDS011;57506;50.092;15.804;2022-08-06T09:22:36;9.17;;;4.70;;
70026;SDS011;57506;50.092;15.804;2022-08-06T09:25:02;9.00;;;4.37;;
70026;SDS011;57506;50.092;15.804;2022-08-06T09:27:34;7.32;;;4.90;;
70026;SDS011;57506;50.092;15.804;2022-08-06T09:30:03;8.93;;;5.53;;
70026;SDS011;57506;50.092;15.804;2022-08-06T09:32:46;9.18;;;4.68;;
70026;SDS011;57506;50.092;15.804;2022-08-06T09:35:22;11.23;;;5.57;;
70026;SDS011;57506;50.092;15.804;2022-08-06T09:37:50;8.60;;;5.50;;
70026;SDS011;57506;50.092;15.804;2022-08-06T09:40:31;7.65;;;4.53;;
70026;SDS011;57506;50.092;15.804;2022-08-06T09:42:57;6.88;;;4.40;;
70026;SDS011;57506;50.092;15.804;2022-08-06T09:45:24;6.23;;;4.33;;
70026;SDS011;57506;50.092;15.804;2022-08-06T09:48:03;8.27;;;4.75;;
70026;SDS011;57506;50.092;15.804;2022-08-06T09:50:37;7.03;;;4.90;;
70026;SDS011;57506;50.092;15.804;2022-08-06T09:53:07;8.55;;;4.13;;
70026;SDS011;57506;50.092;15.804;2022-08-06T09:55:33;7.23;;;4.47;;
70026;SDS011;57506;50.092;15.804;2022-08-06T09:58:00;7.07;;;4.50;;
70026;SDS011;57506;50.092;15.804;2022-08-06T10:00:27;8.55;;;4.32;;
70026;SDS011;57506;50.092;15.804;2022-08-06T10:03:02;8.73;;;5.33;;
70026;SDS011;57506;50.092;15.804;2022-08-06T10:05:30;7.15;;;4.60;;
70026;SDS011;57506;50.092;15.804;2022-08-06T10:08:09;9.05;;;5.00;;
70026;SDS011;57506;50.092;15.804;2022-08-06T10:10:46;8.27;;;4.30;;
70026;SDS011;57506;50.092;15.804;2022-08-06T10:13:17;7.07;;;3.65;;
70026;SDS011;57506;50.092;15.804;2022-08-06T10:15:44;5.20;;;3.20;;
70026;SDS011;57506;50.092;15.804;2022-08-06T10:18:12;7.25;;;3.20;;
70026;SDS011;57506;50.092;15.804;2022-08-06T10:21:04;6.35;;;3.50;;
70026;SDS011;57506;50.092;15.804;2022-08-06T10:23:32;7.20;;;2.90;;
70026;SDS011;57506;50.092;15.804;2022-08-06T10:26:00;6.30;;;2.80;;
70026;SDS011;57506;50.092;15.804;2022-08-06T10:28:28;6.28;;;3.17;;
70026;SDS011;57506;50.092;15.804;2022-08-06T10:30:55;5.40;;;2.85;;
70026;SDS011;57506;50.092;15.804;2022-08-06T10:33:22;5.57;;;3.00;;
70026;SDS011;57506;50.092;15.804;2022-08-06T10:35:52;7.45;;;3.67;;
70026;SDS011;57506;50.092;15.804;2022-08-06T10:38:23;6.17;;;3.00;;
70026;SDS011;57506;50.092;15.804;2022-08-06T10:40:52;7.30;;;3.00;;
70026;SDS011;57506;50.092;15.804;2022-08-06T10:43:18;6.90;;;2.80;;
70026;SDS011;57506;50.092;15.804;2022-08-06T10:45:45;8.70;;;2.85;;
70026;SDS011;57506;50.092;15.804;2022-08-06T10:48:11;6.28;;;3.13;;
70026;SDS011;57506;50.092;15.804;2022-08-06T10:50:37;6.10;;;3.20;;
70026;SDS011;57506;50.092;15.804;2022-08-06T10:53:04;7.40;;;3.63;;
70026;SDS011;57506;50.092;15.804;2022-08-06T10:55:30;7.50;;;3.47;;
70026;SDS011;57506;50.092;15.804;2022-08-06T10:57:58;9.20;;;3.00;;
70026;SDS011;57506;50.092;15.804;2022-08-06T11:00:25;7.87;;;3.37;;
70026;SDS011;57506;50.092;15.804;2022-08-06T11:05:55;5.80;;;2.67;;
70026;SDS011;57506;50.092;15.804;2022-08-06T11:09:35;9.18;;;3.03;;
70026;SDS011;57506;50.092;15.804;2022-08-06T11:14:40;6.80;;;2.80;;
70026;SDS011;57506;50.092;15.804;2022-08-06T11:17:06;8.43;;;3.25;;
70026;SDS011;57506;50.092;15.804;2022-08-06T11:22:04;5.33;;;3.00;;
70026;SDS011;57506;50.092;15.804;2022-08-06T11:24:30;6.93;;;3.38;;
70026;SDS011;57506;50.092;15.804;2022-08-06T11:26:56;6.20;;;3.33;;
70026;SDS011;57506;50.092;15.804;2022-08-06T11:29:21;7.80;;;3.60;;
70026;SDS011;57506;50.092;15.804;2022-08-06T11:31:48;7.50;;;3.78;;
70026;SDS011;57506;50.092;15.804;2022-08-06T11:34:16;7.07;;;3.83;;
70026;SDS011;57506;50.092;15.804;2022-08-06T11:36:48;5.33;;;3.90;;
70026;SDS011;57506;50.092;15.804;2022-08-06T11:39:15;6.28;;;3.50;;
70026;SDS011;57506;50.092;15.804;2022-08-06T11:44:17;6.13;;;3.70;;
70026;SDS011;57506;50.092;15.804;2022-08-06T11:46:45;7.60;;;4.50;;
70026;SDS011;57506;50.092;15.804;2022-08-06T11:49:17;8.33;;;4.77;;
70026;SDS011;57506;50.092;15.804;2022-08-06T11:54:20;8.70;;;4.63;;
70026;SDS011;57506;50.092;15.804;2022-08-06T12:02:06;6.63;;;3.57;;
70026;SDS011;57506;50.092;15.804;2022-08-06T12:25:38;6.28;;;3.40;;
70026;SDS011;57506;50.092;15.804;2022-08-06T12:28:05;5.93;;;3.38;;
70026;SDS011;57506;50.092;15.804;2022-08-06T12:33:10;5.73;;;3.37;;
70026;SDS011;57506;50.092;15.804;2022-08-06T12:35:37;6.03;;;3.10;;
70026;SDS011;57506;50.092;15.804;2022-08-06T12:38:17;6.45;;;3.20;;
70026;SDS011;57506;50.092;15.804;2022-08-06T12:41:00;6.25;;;3.70;;
70026;SDS011;57506;50.092;15.804;2022-08-06T12:43:31;6.32;;;3.15;;
70026;SDS011;57506;50.092;15.804;2022-08-06T12:46:03;5.50;;;3.73;;
70026;SDS011;57506;50.092;15.804;2022-08-06T12:48:34;6.93;;;3.72;;
70026;SDS011;57506;50.092;15.804;2022-08-06T12:51:06;6.45;;;3.22;;
70026;SDS011;57506;50.092;15.804;2022-08-06T12:56:19;5.45;;;2.85;;
70026;SDS011;57506;50.092;15.804;2022-08-06T12:58:46;5.20;;;3.17;;
70026;SDS011;57506;50.092;15.804;2022-08-06T13:01:15;5.40;;;3.17;;
70026;SDS011;57506;50.092;15.804;2022-08-06T13:03:44;5.03;;;2.90;;
70026;SDS011;57506;50.092;15.804;2022-08-06T13:06:12;5.72;;;3.10;;
70026;SDS011;57506;50.092;15.804;2022-08-06T13:08:40;5.70;;;3.00;;
70026;SDS011;57506;50.092;15.804;2022-08-06T13:11:06;6.90;;;2.93;;
70026;SDS011;57506;50.092;15.804;2022-08-06T13:13:39;5.35;;;2.75;;
70026;SDS011;57506;50.092;15.804;2022-08-06T13:16:10;7.20;;;3.00;;
70026;SDS011;57506;50.092;15.804;2022-08-06T13:18:38;5.30;;;2.85;;
70026;SDS011;57506;50.092;15.804;2022-08-06T13:21:25;6.40;;;2.70;;
70026;SDS011;57506;50.092;15.804;2022-08-06T13:23:50;4.55;;;2.30;;
70026;SDS011;57506;50.092;15.804;2022-08-06T13:26:22;5.63;;;3.20;;
70026;SDS011;57506;50.092;15.804;2022-08-06T13:31:38;5.18;;;2.88;;
70026;SDS011;57506;50.092;15.804;2022-08-06T13:34:09;6.10;;;2.27;;
70026;SDS011;57506;50.092;15.804;2022-08-06T13:36:37;4.60;;;2.45;;
70026;SDS011;57506;50.092;15.804;2022-08-06T13:39:29;4.88;;;2.60;;
70026;SDS011;57506;50.092;15.804;2022-08-06T13:44:40;7.13;;;2.38;;
70026;SDS011;57506;50.092;15.804;2022-08-06T13:47:07;7.17;;;2.50;;
70026;SDS011;57506;50.092;15.804;2022-08-06T13:49:37;6.13;;;2.45;;
70026;SDS011;57506;50.092;15.804;2022-08-06T13:52:03;8.80;;;2.58;;
70026;SDS011;57506;50.092;15.804;2022-08-06T13:54:29;5.22;;;2.38;;
70026;SDS011;57506;50.092;15.804;2022-08-06T13:56:55;5.53;;;2.10;;
70026;SDS011;57506;50.092;15.804;2022-08-06T13:59:23;4.27;;;2.30;;
70026;SDS011;57506;50.092;15.804;2022-08-06T14:01:50;5.53;;;2.10;;
70026;SDS011;57506;50.092;15.804;2022-08-06T14:04:17;4.00;;;1.95;;
70026;SDS011;57506;50.092;15.804;2022-08-06T14:06:47;5.28;;;2.42;;
70026;SDS011;57506;50.092;15.804;2022-08-06T14:09:13;3.80;;;1.90;;
70026;SDS011;57506;50.092;15.804;2022-08-06T14:11:39;4.63;;;1.95;;
70026;SDS011;57506;50.092;15.804;2022-08-06T14:14:06;3.88;;;1.83;;
70026;SDS011;57506;50.092;15.804;2022-08-06T14:16:32;4.40;;;1.63;;
70026;SDS011;57506;50.092;15.804;2022-08-06T14:18:58;3.93;;;1.80;;
70026;SDS011;57506;50.092;15.804;2022-08-06T14:21:23;4.37;;;1.70;;
70026;SDS011;57506;50.092;15.804;2022-08-06T14:23:49;4.70;;;1.55;;
70026;SDS011;57506;50.092;15.804;2022-08-06T14:26:14;3.80;;;1.60;;
70026;SDS011;57506;50.092;15.804;2022-08-06T14:28:40;3.13;;;1.35;;
70026;SDS011;57506;50.092;15.804;2022-08-06T14:31:06;3.37;;;1.50;;
70026;SDS011;57506;50.092;15.804;2022-08-06T14:33:31;4.43;;;1.60;;
70026;SDS011;57506;50.092;15.804;2022-08-06T14:35:57;6.57;;;1.60;;
70026;SDS011;57506;50.092;15.804;2022-08-06T14:38:22;3.83;;;1.40;;
70026;SDS011;57506;50.092;15.804;2022-08-06T14:40:48;4.40;;;1.48;;
70026;SDS011;57506;50.092;15.804;2022-08-06T14:43:32;3.65;;;1.50;;
70026;SDS011;57506;50.092;15.804;2022-08-06T14:46:16;3.83;;;1.60;;
70026;SDS011;57506;50.092;15.804;2022-08-06T14:48:42;4.07;;;1.60;;
70026;SDS011;57506;50.092;15.804;2022-08-06T14:51:08;3.30;;;1.30;;
70026;SDS011;57506;50.092;15.804;2022-08-06T14:53:33;5.40;;;1.17;;
70026;SDS011;57506;50.092;15.804;2022-08-06T14:55:59;5.20;;;1.40;;
70026;SDS011;57506;50.092;15.804;2022-08-06T14:58:25;2.80;;;1.00;;
70026;SDS011;57506;50.092;15.804;2022-08-06T15:00:50;4.03;;;1.10;;
70026;SDS011;57506;50.092;15.804;2022-08-06T15:03:17;3.25;;;1.40;;
70026;SDS011;57506;50.092;15.804;2022-08-06T15:05:44;3.53;;;1.17;;
70026;SDS011;57506;50.092;15.804;2022-08-06T15:08:10;4.65;;;1.38;;
70026;SDS011;57506;50.092;15.804;2022-08-06T15:10:36;4.37;;;1.33;;
70026;SDS011;57506;50.092;15.804;2022-08-06T15:13:03;3.80;;;1.40;;
70026;SDS011;57506;50.092;15.804;2022-08-06T15:15:30;3.28;;;1.40;;
70026;SDS011;57506;50.092;15.804;2022-08-06T15:17:56;3.00;;;1.10;;
70026;SDS011;57506;50.092;15.804;2022-08-06T15:20:22;2.70;;;0.93;;
70026;SDS011;57506;50.092;15.804;2022-08-06T15:22:48;2.90;;;1.20;;
70026;SDS011;57506;50.092;15.804;2022-08-06T15:25:13;3.88;;;1.40;;
70026;SDS011;57506;50.092;15.804;2022-08-06T15:27:43;4.03;;;1.53;;
70026;SDS011;57506;50.092;15.804;2022-08-06T15:30:09;3.22;;;1.55;;
70026;SDS011;57506;50.092;15.804;2022-08-06T15:32:36;4.80;;;1.38;;
70026;SDS011;57506;50.092;15.804;2022-08-06T15:35:02;3.47;;;1.50;;
70026;SDS011;57506;50.092;15.804;2022-08-06T15:37:28;3.43;;;1.40;;
70026;SDS011;57506;50.092;15.804;2022-08-06T15:39:54;5.50;;;2.60;;
70026;SDS011;57506;50.092;15.804;2022-08-06T15:42:20;3.57;;;1.37;;
70026;SDS011;57506;50.092;15.804;2022-08-06T15:44:46;3.75;;;1.45;;
70026;SDS011;57506;50.092;15.804;2022-08-06T15:47:12;4.00;;;1.20;;
70026;SDS011;57506;50.092;15.804;2022-08-06T15:49:37;3.38;;;1.35;;
70026;SDS011;57506;50.092;15.804;2022-08-06T15:52:03;4.23;;;1.50;;
70026;SDS011;57506;50.092;15.804;2022-08-06T15:54:29;3.65;;;1.30;;
70026;SDS011;57506;50.092;15.804;2022-08-06T15:56:55;3.13;;;1.35;;
70026;SDS011;57506;50.092;15.804;2022-08-06T15:59:20;3.87;;;1.53;;